Time;durP1;ratioP1;P1;durP2;ratioP2;P2;SDS_P1;SDS_P2;PMS_P1;PMS_P2;Temp;Humidity;BMP_temperature;BMP_pressure;BME280_temperature;BME280_humidity;BME280_pressure;Samples;Min_cycle;Max_cycle;Signal;HPM_P1;HPM_P2
2023/07/25 00:00:26;;;;;;;0.45;0.10;;;12.40;99.90;;;;;;5051501;28;20399;-66
2023/07/25 00:02:52;;;;;;;0.28;0.20;;;12.40;99.90;;;;;;5070003;28;20032;-66
2023/07/25 00:05:20;;;;;;;0.82;0.30;;;12.50;99.90;;;;;;5066981;28;20082;-66
2023/07/25 00:07:45;;;;;;;0.28;0.20;;;12.50;99.90;;;;;;5051828;28;20048;-67
2023/07/25 00:10:11;;;;;;;0.55;0.25;;;12.60;99.90;;;;;;5051821;28;20048;-67
2023/07/25 00:12:37;;;;;;;0.15;0.15;;;12.60;99.90;;;;;;5068991;28;20048;-67
2023/07/25 00:15:04;;;;;;;1.23;0.20;;;12.60;99.90;;;;;;5071831;28;20071;-67
2023/07/25 00:17:30;;;;;;;0.20;0.10;;;12.60;99.90;;;;;;5072747;28;20044;-67
2023/07/25 00:19:56;;;;;;;0.77;0.35;;;12.60;99.90;;;;;;5054142;28;20400;-67
2023/07/25 00:22:22;;;;;;;0.80;0.28;;;12.60;99.90;;;;;;5054632;28;20040;-67
2023/07/25 00:24:47;;;;;;;0.15;0.13;;;12.60;99.90;;;;;;5051463;28;20040;-67
2023/07/25 00:27:13;;;;;;;0.95;0.20;;;12.60;99.90;;;;;;5052491;28;20052;-68
2023/07/25 00:29:39;;;;;;;0.28;0.10;;;12.60;99.90;;;;;;5073451;28;20036;-67
2023/07/25 00:32:05;;;;;;;0.35;0.20;;;12.60;99.90;;;;;;5051713;28;20044;-67
2023/07/25 00:34:31;;;;;;;2.83;0.20;;;12.50;99.90;;;;;;5073243;28;20497;-67
2023/07/25 00:36:56;;;;;;;0.32;0.10;;;12.50;99.90;;;;;;5071588;28;20052;-67
2023/07/25 00:39:22;;;;;;;0.10;0.00;;;12.50;99.90;;;;;;5054947;28;20597;-67
2023/07/25 00:41:48;;;;;;;0.38;0.10;;;12.40;99.90;;;;;;5047656;28;20036;-67
2023/07/25 00:44:14;;;;;;;0.22;0.10;;;12.40;99.90;;;;;;5054888;28;20473;-67
2023/07/25 00:46:41;;;;;;;0.22;0.10;;;12.30;99.90;;;;;;5050570;28;20155;-67
2023/07/25 00:49:07;;;;;;;0.30;0.15;;;12.30;99.90;;;;;;5054488;28;20644;-66
2023/07/25 00:51:34;;;;;;;0.17;0.10;;;12.30;99.90;;;;;;5071471;28;21308;-67
2023/07/25 00:54:00;;;;;;;0.35;0.10;;;12.20;99.90;;;;;;5072100;28;20033;-67
2023/07/25 00:56:26;;;;;;;0.15;0.10;;;12.20;99.90;;;;;;5051229;28;20090;-67
2023/07/25 00:58:52;;;;;;;6.53;0.40;;;12.10;99.90;;;;;;5072900;28;20041;-67
2023/07/25 01:01:18;;;;;;;0.30;0.30;;;12.10;99.90;;;;;;5070449;28;20036;-67
2023/07/25 01:03:44;;;;;;;0.22;0.10;;;12.00;99.90;;;;;;5072361;28;20467;-67
2023/07/25 01:06:12;;;;;;;0.43;0.20;;;12.00;99.90;;;;;;5051238;28;20473;-67
2023/07/25 01:08:51;;;;;;;0.50;0.30;;;11.90;99.90;;;;;;5070312;28;20435;-68
2023/07/25 01:11:17;;;;;;;0.73;0.20;;;11.90;99.90;;;;;;5070638;28;20048;-67
2023/07/25 01:13:44;;;;;;;0.00;0.00;;;11.90;99.90;;;;;;5072004;28;20047;-67
2023/07/25 01:16:12;;;;;;;0.10;0.10;;;11.80;99.90;;;;;;5054966;28;20048;-67
2023/07/25 01:18:39;;;;;;;0.40;0.10;;;11.70;99.90;;;;;;5053766;28;20080;-67
2023/07/25 01:21:05;;;;;;;0.22;0.10;;;11.70;99.90;;;;;;5052605;28;20428;-68
2023/07/25 01:23:32;;;;;;;0.15;0.10;;;11.70;99.90;;;;;;5072765;28;20119;-67
2023/07/25 01:25:58;;;;;;;0.10;0.00;;;11.60;99.90;;;;;;5048549;28;20044;-67
2023/07/25 01:28:24;;;;;;;0.20;0.17;;;11.60;99.90;;;;;;5054414;28;20044;-68
2023/07/25 01:30:50;;;;;;;0.40;0.10;;;11.60;99.90;;;;;;5050979;28;20056;-67
2023/07/25 01:33:15;;;;;;;0.17;0.10;;;11.50;99.90;;;;;;5072283;28;20514;-68
2023/07/25 01:35:41;;;;;;;0.17;0.15;;;11.50;99.90;;;;;;5070976;28;20033;-67
2023/07/25 01:38:07;;;;;;;0.38;0.20;;;11.50;99.90;;;;;;5072090;28;20136;-67
2023/07/25 01:40:32;;;;;;;0.60;0.20;;;11.50;99.90;;;;;;5066727;28;20041;-67
2023/07/25 01:42:58;;;;;;;0.32;0.10;;;11.50;99.90;;;;;;5053368;28;20064;-67
2023/07/25 01:45:24;;;;;;;0.15;0.10;;;11.50;99.90;;;;;;5051039;28;20025;-68
2023/07/25 01:47:49;;;;;;;2.25;0.20;;;11.50;99.90;;;;;;5052910;28;20105;-67
2023/07/25 01:50:16;;;;;;;0.98;0.22;;;11.50;99.90;;;;;;5052909;28;20349;-67
2023/07/25 01:52:42;;;;;;;0.80;0.35;;;11.50;99.90;;;;;;5071779;28;20111;-68
2023/07/25 01:55:08;;;;;;;0.20;0.10;;;11.50;99.90;;;;;;5053581;28;20179;-68
2023/07/25 01:57:34;;;;;;;2.20;0.40;;;11.50;99.90;;;;;;5050346;28;20073;-68
2023/07/25 02:00:00;;;;;;;1.00;0.35;;;11.50;99.90;;;;;;5071707;28;20143;-68
2023/07/25 02:02:25;;;;;;;0.30;0.10;;;11.50;99.90;;;;;;5067946;28;20044;-67
2023/07/25 02:04:51;;;;;;;1.33;0.30;;;11.50;99.90;;;;;;5052630;28;20149;-65
2023/07/25 02:07:17;;;;;;;2.80;0.40;;;11.50;99.90;;;;;;5052691;28;20117;-66
2023/07/25 02:09:43;;;;;;;0.03;0.00;;;11.50;99.90;;;;;;5053234;28;20041;-66
2023/07/25 02:12:08;;;;;;;0.10;0.10;;;11.60;99.90;;;;;;5048065;28;20508;-66
2023/07/25 02:14:34;;;;;;;0.10;0.10;;;11.60;99.90;;;;;;5066492;28;20094;-66
2023/07/25 02:17:00;;;;;;;0.30;0.00;;;11.50;99.90;;;;;;5051568;28;20392;-65
2023/07/25 02:19:26;;;;;;;0.20;0.10;;;11.50;99.90;;;;;;5070767;28;20048;-66
2023/07/25 02:21:51;;;;;;;0.35;0.17;;;11.50;99.90;;;;;;5052740;28;20039;-66
2023/07/25 02:24:17;;;;;;;0.13;0.05;;;11.50;99.90;;;;;;5068700;28;20033;-66
2023/07/25 02:26:43;;;;;;;0.32;0.17;;;11.50;99.90;;;;;;5069730;28;20044;-67
2023/07/25 02:29:08;;;;;;;0.43;0.20;;;11.50;99.90;;;;;;5071322;28;20115;-67
2023/07/25 02:31:34;;;;;;;2.88;0.32;;;11.40;99.90;;;;;;5052505;28;20076;-67
2023/07/25 02:34:01;;;;;;;0.90;0.47;;;11.50;99.90;;;;;;5071410;28;20534;-67
2023/07/25 02:36:27;;;;;;;0.20;0.10;;;11.50;99.90;;;;;;5051762;28;20047;-67
2023/07/25 02:38:52;;;;;;;0.10;0.10;;;11.50;99.90;;;;;;5070317;28;20033;-67
2023/07/25 02:41:18;;;;;;;0.35;0.10;;;11.50;99.90;;;;;;5051294;28;20036;-67
2023/07/25 02:43:45;;;;;;;0.28;0.10;;;11.50;99.90;;;;;;5070908;28;20051;-67
2023/07/25 02:46:11;;;;;;;0.30;0.10;;;11.60;99.90;;;;;;5068326;28;20128;-67
2023/07/25 02:48:36;;;;;;;0.15;0.10;;;11.60;99.90;;;;;;5051197;28;20044;-66
2023/07/25 02:51:02;;;;;;;0.20;0.15;;;11.70;99.90;;;;;;5069985;28;20037;-67
2023/07/25 02:53:28;;;;;;;0.30;0.20;;;11.70;99.90;;;;;;5071214;28;20341;-67
2023/07/25 02:55:57;;;;;;;0.75;0.15;;;11.70;99.90;;;;;;5068495;28;20040;-67
2023/07/25 02:58:23;;;;;;;1.05;0.20;;;11.70;99.90;;;;;;5070395;28;20076;-68
2023/07/25 03:00:49;;;;;;;0.55;0.20;;;11.80;99.90;;;;;;5052107;28;20112;-66
2023/07/25 03:03:15;;;;;;;0.00;0.00;;;11.80;99.90;;;;;;5052834;28;20066;-67
2023/07/25 03:05:41;;;;;;;0.70;0.30;;;11.80;99.90;;;;;;5051906;28;20182;-67
2023/07/25 03:08:07;;;;;;;0.10;0.10;;;11.80;99.90;;;;;;5070237;28;20136;-67
2023/07/25 03:10:33;;;;;;;0.93;0.20;;;11.90;99.90;;;;;;5051138;28;20047;-67
2023/07/25 03:12:59;;;;;;;0.77;0.50;;;11.80;99.90;;;;;;5052206;28;20139;-67
2023/07/25 03:15:24;;;;;;;0.75;0.15;;;11.90;99.90;;;;;;5053624;28;20139;-66
2023/07/25 03:17:50;;;;;;;0.22;0.20;;;11.90;99.90;;;;;;5028248;28;20517;-66
2023/07/25 03:20:16;;;;;;;0.20;0.10;;;12.00;99.90;;;;;;5034419;28;20036;-67
2023/07/25 03:22:42;;;;;;;0.13;0.10;;;12.00;99.90;;;;;;5031567;28;20048;-66
2023/07/25 03:25:09;;;;;;;0.63;0.30;;;12.00;99.90;;;;;;5048635;28;20044;-67
2023/07/25 03:27:35;;;;;;;1.35;0.20;;;12.00;99.90;;;;;;5026340;28;20057;-66
2023/07/25 03:30:00;;;;;;;0.25;0.10;;;12.00;99.90;;;;;;5032153;28;20049;-66
2023/07/25 03:32:26;;;;;;;0.60;0.30;;;12.10;99.90;;;;;;5049390;28;20052;-67
2023/07/25 03:34:52;;;;;;;0.10;0.10;;;12.10;99.90;;;;;;5031875;28;20045;-66
2023/07/25 03:37:17;;;;;;;0.75;0.20;;;12.10;99.90;;;;;;5049485;28;20124;-65
2023/07/25 03:39:43;;;;;;;0.10;0.10;;;12.20;99.90;;;;;;5030340;28;20655;-65
2023/07/25 03:42:09;;;;;;;0.25;0.15;;;12.20;99.90;;;;;;5012423;28;20234;-66
2023/07/25 03:44:34;;;;;;;0.52;0.22;;;12.20;99.90;;;;;;5049575;28;20045;-66
2023/07/25 03:47:00;;;;;;;0.25;0.25;;;12.20;99.90;;;;;;5046519;28;20037;-66
2023/07/25 03:49:26;;;;;;;2.10;0.20;;;12.30;99.90;;;;;;5049814;28;20037;-66
2023/07/25 03:51:51;;;;;;;0.20;0.10;;;12.30;99.90;;;;;;5053760;28;20094;-66
2023/07/25 03:54:18;;;;;;;0.10;0.05;;;12.30;99.90;;;;;;5052451;28;20389;-66
2023/07/25 03:56:44;;;;;;;0.20;0.10;;;12.30;99.90;;;;;;5033250;28;20098;-66
2023/07/25 03:59:10;;;;;;;0.32;0.10;;;12.30;99.90;;;;;;5053279;28;20037;-66
2023/07/25 04:01:35;;;;;;;0.60;0.45;;;12.30;99.90;;;;;;5034494;28;20047;-66
2023/07/25 04:04:01;;;;;;;0.55;0.20;;;12.30;99.90;;;;;;5035581;28;20041;-66
2023/07/25 04:06:27;;;;;;;0.38;0.15;;;12.30;99.90;;;;;;5034174;28;20037;-66
2023/07/25 04:08:53;;;;;;;0.10;0.08;;;12.30;99.90;;;;;;5035160;28;20041;-66
2023/07/25 04:11:18;;;;;;;0.25;0.10;;;12.30;99.90;;;;;;5031670;28;20121;-65
2023/07/25 04:13:44;;;;;;;0.43;0.10;;;12.40;99.90;;;;;;5053198;28;20069;-65
2023/07/25 04:16:10;;;;;;;0.20;0.10;;;12.40;99.90;;;;;;5059334;28;20053;-65
2023/07/25 04:18:36;;;;;;;0.30;0.10;;;12.40;99.90;;;;;;5072699;28;20106;-66
2023/07/25 04:21:01;;;;;;;0.43;0.00;;;12.40;99.90;;;;;;5073174;28;20412;-66
2023/07/25 04:23:27;;;;;;;0.30;0.10;;;12.40;99.90;;;;;;5068186;28;20510;-65
2023/07/25 04:25:53;;;;;;;0.38;0.13;;;12.50;99.90;;;;;;5070978;28;20037;-65
2023/07/25 04:28:18;;;;;;;0.20;0.10;;;12.50;99.90;;;;;;5054715;28;20432;-66
2023/07/25 04:30:44;;;;;;;0.68;0.10;;;12.50;99.90;;;;;;5054737;28;20085;-65
2023/07/25 04:33:10;;;;;;;0.10;0.10;;;12.40;99.90;;;;;;5071637;28;20051;-66
2023/07/25 04:35:35;;;;;;;0.22;0.10;;;12.40;99.90;;;;;;5054615;28;20076;-66
2023/07/25 04:38:01;;;;;;;0.25;0.20;;;12.40;99.90;;;;;;5072516;28;20515;-66
2023/07/25 04:40:28;;;;;;;0.57;0.20;;;12.50;99.90;;;;;;5054192;28;20084;-66
2023/07/25 04:42:54;;;;;;;0.55;0.20;;;12.50;99.90;;;;;;5071611;28;20134;-65
2023/07/25 04:45:20;;;;;;;0.13;0.05;;;12.50;99.90;;;;;;5054846;28;20127;-66
2023/07/25 04:47:46;;;;;;;0.00;0.00;;;12.60;99.90;;;;;;5071723;28;20041;-66
2023/07/25 04:50:11;;;;;;;0.60;0.10;;;12.70;99.90;;;;;;5054715;28;20442;-66
2023/07/25 04:52:37;;;;;;;0.77;0.13;;;12.70;99.90;;;;;;5070734;28;20040;-65
2023/07/25 04:55:03;;;;;;;1.50;0.30;;;12.80;99.90;;;;;;5072656;28;20044;-65
2023/07/25 04:57:29;;;;;;;0.00;0.00;;;12.90;99.90;;;;;;5070434;28;20051;-65
2023/07/25 04:59:54;;;;;;;0.55;0.10;;;13.00;99.90;;;;;;5072990;28;20067;-65
2023/07/25 05:02:22;;;;;;;0.03;0.00;;;13.10;99.90;;;;;;5052296;28;20515;-65
2023/07/25 05:04:48;;;;;;;0.90;0.30;;;13.20;99.90;;;;;;5072520;28;20040;-66
2023/07/25 05:07:15;;;;;;;0.00;0.00;;;13.40;99.90;;;;;;5054086;28;20051;-66
2023/07/25 05:09:41;;;;;;;0.40;0.20;;;13.50;99.90;;;;;;5072751;28;20134;-66
2023/07/25 05:12:11;;;;;;;0.17;0.00;;;13.80;99.90;;;;;;5070806;28;20040;-66
2023/07/25 05:14:37;;;;;;;0.45;0.22;;;14.30;99.90;;;;;;5073077;28;20043;-66
2023/07/25 05:17:03;;;;;;;1.83;0.35;;;14.60;99.90;;;;;;5071426;28;20049;-66
2023/07/25 05:19:29;;;;;;;0.40;0.10;;;14.60;99.90;;;;;;5053159;28;20697;-66
2023/07/25 05:21:55;;;;;;;2.05;0.45;;;14.60;99.90;;;;;;5052293;28;20048;-66
2023/07/25 05:24:20;;;;;;;0.32;0.15;;;14.80;99.90;;;;;;5072297;28;20036;-66
2023/07/25 05:26:46;;;;;;;0.10;0.10;;;14.90;99.90;;;;;;5070999;28;20045;-66
2023/07/25 05:29:12;;;;;;;2.58;0.10;;;14.70;99.90;;;;;;5071695;28;20095;-66
2023/07/25 05:31:37;;;;;;;2.83;0.47;;;14.60;99.90;;;;;;5072266;28;20089;-66
2023/07/25 05:34:03;;;;;;;0.88;0.10;;;14.50;99.90;;;;;;5070176;28;20599;-66
2023/07/25 05:36:29;;;;;;;1.08;0.32;;;14.40;99.90;;;;;;5071816;28;20415;-66
2023/07/25 05:38:54;;;;;;;1.73;1.27;;;14.40;99.90;;;;;;5051866;28;20189;-65
2023/07/25 05:41:20;;;;;;;0.40;0.20;;;14.40;99.90;;;;;;5070532;28;20032;-67
2023/07/25 05:43:46;;;;;;;0.10;0.10;;;14.50;99.90;;;;;;5071470;28;20496;-67
2023/07/25 05:46:13;;;;;;;0.45;0.20;;;14.50;99.90;;;;;;5053351;28;20401;-66
2023/07/25 05:48:39;;;;;;;0.30;0.30;;;14.50;99.90;;;;;;5067783;28;20032;-66
2023/07/25 05:51:05;;;;;;;0.90;0.50;;;14.50;99.90;;;;;;5071046;28;20043;-65
2023/07/25 05:53:31;;;;;;;1.50;0.50;;;14.50;99.90;;;;;;5071487;28;20037;-65
2023/07/25 05:55:57;;;;;;;0.40;0.10;;;14.60;99.90;;;;;;5052414;28;20729;-65
2023/07/25 05:58:22;;;;;;;0.10;0.10;;;14.60;99.90;;;;;;5052862;28;20123;-65
2023/07/25 06:00:48;;;;;;;0.00;0.00;;;14.60;99.90;;;;;;5070929;28;20040;-65
2023/07/25 06:03:15;;;;;;;0.13;0.00;;;14.70;99.90;;;;;;5049630;28;20056;-65
2023/07/25 06:05:41;;;;;;;1.45;0.35;;;14.70;99.90;;;;;;5053046;28;20063;-65
2023/07/25 06:08:08;;;;;;;2.50;0.22;;;14.80;99.90;;;;;;5053078;28;20071;-65
2023/07/25 06:10:35;;;;;;;0.20;0.00;;;14.90;99.90;;;;;;5070374;28;20043;-65
2023/07/25 06:13:03;;;;;;;1.00;0.15;;;15.00;99.90;;;;;;5071145;28;20461;-65
2023/07/25 06:15:29;;;;;;;0.15;0.10;;;15.00;99.90;;;;;;5068967;28;20162;-65
2023/07/25 06:17:55;;;;;;;1.77;0.10;;;15.00;99.90;;;;;;5069495;28;20052;-66
2023/07/25 06:20:21;;;;;;;0.68;0.40;;;15.10;99.90;;;;;;5052835;28;20393;-65
2023/07/25 06:22:48;;;;;;;1.17;0.10;;;15.10;99.90;;;;;;5052072;28;20170;-65
2023/07/25 06:25:15;;;;;;;0.00;0.00;;;15.20;99.90;;;;;;5052436;28;20083;-66
2023/07/25 06:27:41;;;;;;;1.88;0.15;;;15.20;99.90;;;;;;5070044;28;20032;-66
2023/07/25 06:30:07;;;;;;;0.22;0.10;;;15.20;99.90;;;;;;5070953;28;20040;-66
2023/07/25 06:32:34;;;;;;;1.75;0.10;;;15.20;99.90;;;;;;5046915;28;20056;-66
2023/07/25 06:35:00;;;;;;;0.00;0.00;;;15.20;99.90;;;;;;5071056;28;20076;-66
2023/07/25 06:37:26;;;;;;;1.05;0.00;;;15.20;99.90;;;;;;5050000;28;20055;-66
2023/07/25 06:39:52;;;;;;;1.08;0.00;;;15.30;99.90;;;;;;5052735;28;20063;-65
2023/07/25 06:42:17;;;;;;;1.80;0.00;;;15.30;99.90;;;;;;5050689;28;20125;-66
2023/07/25 06:44:43;;;;;;;1.15;0.40;;;15.40;99.90;;;;;;5052598;28;20484;-65
2023/07/25 06:47:09;;;;;;;0.30;0.17;;;15.40;99.90;;;;;;5070491;28;20044;-66
2023/07/25 06:49:34;;;;;;;0.63;0.00;;;15.50;99.90;;;;;;5068119;28;20123;-66
2023/07/25 06:52:00;;;;;;;0.32;0.13;;;15.60;99.90;;;;;;5070184;28;20044;-66
2023/07/25 06:54:26;;;;;;;0.25;0.10;;;15.60;99.90;;;;;;5069573;28;20098;-66
2023/07/25 06:56:52;;;;;;;0.20;0.15;;;15.70;99.90;;;;;;5069090;28;20771;-66
2023/07/25 06:59:18;;;;;;;0.35;0.05;;;15.80;99.90;;;;;;5070324;28;20147;-65
2023/07/25 07:01:44;;;;;;;0.40;0.08;;;15.80;99.90;;;;;;5070053;28;20111;-66
2023/07/25 07:04:09;;;;;;;0.47;0.10;;;15.80;99.90;;;;;;5070451;28;20041;-65
2023/07/25 07:06:35;;;;;;;0.35;0.10;;;15.70;99.90;;;;;;5070445;28;20500;-66
2023/07/25 07:09:01;;;;;;;0.00;0.00;;;15.80;99.90;;;;;;5033155;28;20400;-65
2023/07/25 07:11:27;;;;;;;0.00;0.00;;;15.90;99.90;;;;;;5069561;28;20072;-66
2023/07/25 07:13:52;;;;;;;0.93;0.00;;;16.00;99.90;;;;;;5050545;28;20436;-66
2023/07/25 07:16:19;;;;;;;1.23;0.00;;;16.10;99.90;;;;;;5038220;28;20053;-66
2023/07/25 07:18:45;;;;;;;1.25;0.00;;;16.20;99.90;;;;;;5069034;28;20060;-66
2023/07/25 07:21:11;;;;;;;0.00;0.00;;;16.30;99.90;;;;;;5070157;28;20051;-66
2023/07/25 07:23:36;;;;;;;0.22;0.05;;;16.30;99.90;;;;;;5048829;28;20032;-66
2023/07/25 07:26:03;;;;;;;0.43;0.05;;;16.50;99.90;;;;;;5069116;28;20032;-66
2023/07/25 07:28:29;;;;;;;0.00;0.00;;;16.50;99.90;;;;;;5050775;28;20052;-66
2023/07/25 07:30:55;;;;;;;0.00;0.00;;;16.60;99.90;;;;;;5069864;28;20048;-66
2023/07/25 07:33:23;;;;;;;0.20;0.00;;;16.60;99.90;;;;;;5051517;28;20041;-66
2023/07/25 07:35:49;;;;;;;0.10;0.00;;;16.70;99.90;;;;;;5069840;28;20052;-66
2023/07/25 07:38:15;;;;;;;0.00;0.00;;;16.70;99.90;;;;;;5069990;28;20029;-66
2023/07/25 07:40:41;;;;;;;0.00;0.00;;;16.80;99.90;;;;;;5069129;28;20615;-66
2023/07/25 07:43:06;;;;;;;0.38;0.20;;;16.80;99.90;;;;;;5050697;28;20048;-71
2023/07/25 07:45:32;;;;;;;0.47;0.10;;;16.90;99.90;;;;;;5069728;28;20036;-66
2023/07/25 07:47:58;;;;;;;0.00;0.00;;;17.00;99.90;;;;;;5049780;28;20049;-66
2023/07/25 07:50:24;;;;;;;1.10;0.30;;;17.20;99.90;;;;;;5051696;28;20398;-67
2023/07/25 07:52:49;;;;;;;0.00;0.00;;;17.40;99.90;;;;;;5051052;28;20463;-66
2023/07/25 07:55:15;;;;;;;0.00;0.00;;;17.50;99.90;;;;;;5068643;28;20048;-67
2023/07/25 07:57:43;;;;;;;0.00;0.00;;;17.70;99.90;;;;;;5050735;28;20040;-67
2023/07/25 08:00:11;;;;;;;0.00;0.00;;;17.80;99.90;;;;;;5047884;28;20095;-66
2023/07/25 08:02:37;;;;;;;0.00;0.00;;;17.80;99.90;;;;;;5033789;28;20241;-66
2023/07/25 08:05:03;;;;;;;0.13;0.00;;;17.70;99.90;;;;;;5068576;28;20052;-68
2023/07/25 08:07:29;;;;;;;0.35;0.20;;;17.60;99.90;;;;;;5069688;28;20051;-66
2023/07/25 08:09:56;;;;;;;0.00;0.00;;;17.60;99.90;;;;;;5068804;28;20075;-67
2023/07/25 08:12:22;;;;;;;0.35;0.20;;;17.70;99.90;;;;;;5068778;28;20052;-66
2023/07/25 08:14:48;;;;;;;0.00;0.00;;;17.70;99.90;;;;;;5046784;28;20033;-66
2023/07/25 08:17:15;;;;;;;0.38;0.15;;;17.70;99.90;;;;;;5049786;28;20072;-66
2023/07/25 08:19:41;;;;;;;1.15;0.22;;;17.70;99.90;;;;;;5051120;28;20045;-67
2023/07/25 08:22:09;;;;;;;0.45;0.15;;;17.90;99.90;;;;;;5051590;28;20660;-67
2023/07/25 08:24:35;;;;;;;0.90;0.30;;;18.00;99.90;;;;;;5048938;28;20041;-67
2023/07/25 08:27:00;;;;;;;0.10;0.00;;;18.10;99.90;;;;;;5068772;28;20053;-67
2023/07/25 08:29:27;;;;;;;0.00;0.00;;;18.40;99.90;;;;;;5051490;28;20055;-67
2023/07/25 08:31:52;;;;;;;1.42;0.10;;;18.50;99.90;;;;;;5069731;28;20044;-67
2023/07/25 08:34:20;;;;;;;0.00;0.00;;;18.80;99.90;;;;;;5050686;28;20051;-67
2023/07/25 08:36:46;;;;;;;0.20;0.00;;;19.00;99.90;;;;;;5053028;28;20056;-67
2023/07/25 08:39:12;;;;;;;0.00;0.00;;;19.20;99.90;;;;;;5053978;28;20507;-67
2023/07/25 08:41:50;;;;;;;1.75;0.10;;;19.30;99.90;;;;;;5071639;28;20044;-66
2023/07/25 08:44:19;;;;;;;0.00;0.00;;;19.20;99.90;;;;;;5054676;28;20071;-67
2023/07/25 08:46:45;;;;;;;0.00;0.00;;;19.10;99.90;;;;;;5072813;28;20131;-66
2023/07/25 08:49:15;;;;;;;0.00;0.00;;;19.00;99.90;;;;;;5071501;28;20044;-66
2023/07/25 08:51:43;;;;;;;0.00;0.00;;;19.00;99.90;;;;;;5072433;28;20036;-66
2023/07/25 08:54:30;;;;;;;0.00;0.00;;;18.90;99.90;;;;;;5052178;28;20045;-67
2023/07/25 08:56:56;;;;;;;0.05;0.00;;;18.70;99.90;;;;;;5069468;28;20135;-66
2023/07/25 08:59:22;;;;;;;0.00;0.00;;;18.50;99.90;;;;;;5069718;28;20037;-66
2023/07/25 09:01:48;;;;;;;0.00;0.00;;;18.30;99.90;;;;;;5072456;28;20047;-66
2023/07/25 09:04:15;;;;;;;0.05;0.05;;;18.50;99.90;;;;;;5072198;28;20083;-66
2023/07/25 09:06:41;;;;;;;0.25;0.00;;;19.00;99.90;;;;;;5072665;28;20056;-66
2023/07/25 09:09:07;;;;;;;0.00;0.00;;;19.50;99.90;;;;;;5070887;28;20032;-66
2023/07/25 09:11:33;;;;;;;0.00;0.00;;;19.90;99.90;;;;;;5053363;28;20137;-66
2023/07/25 09:14:01;;;;;;;0.00;0.00;;;20.20;99.00;;;;;;5053860;28;20048;-67
2023/07/25 09:16:26;;;;;;;0.00;0.00;;;20.20;98.20;;;;;;5072185;28;20459;-66
2023/07/25 09:18:52;;;;;;;0.10;0.00;;;19.80;96.00;;;;;;5071701;28;20124;-67
2023/07/25 09:21:18;;;;;;;0.15;0.00;;;19.50;98.50;;;;;;5053446;28;20052;-66
2023/07/25 09:23:55;;;;;;;0.00;0.00;;;19.20;98.00;;;;;;5051453;28;20420;-67
2023/07/25 09:26:26;;;;;;;0.00;0.00;;;19.20;96.60;;;;;;5053137;28;20043;-66
2023/07/25 09:28:54;;;;;;;0.00;0.00;;;19.40;97.20;;;;;;5069244;28;20051;-67
2023/07/25 09:31:21;;;;;;;0.00;0.00;;;19.70;97.20;;;;;;5071903;28;20040;-66
2023/07/25 09:33:48;;;;;;;0.00;0.00;;;20.00;96.90;;;;;;5072114;28;20101;-66
2023/07/25 09:36:14;;;;;;;0.00;0.00;;;20.40;99.00;;;;;;5051046;28;20617;-67
2023/07/25 09:38:48;;;;;;;0.30;0.00;;;20.80;99.30;;;;;;5067316;28;20059;-66
2023/07/25 09:41:14;;;;;;;;;;;21.30;95.40;;;;;;5071192;28;20063;-66
2023/07/25 09:43:41;;;;;;;0.40;0.00;;;21.40;92.40;;;;;;5052490;28;20311;-67
2023/07/25 09:46:06;;;;;;;0.73;0.10;;;21.40;93.20;;;;;;5071399;28;20032;-67
2023/07/25 09:48:32;;;;;;;0.13;0.00;;;21.50;87.80;;;;;;5068090;28;20137;-66
2023/07/25 09:50:58;;;;;;;0.20;0.00;;;21.60;89.00;;;;;;5070788;28;20123;-67
2023/07/25 09:53:24;;;;;;;1.40;0.10;;;21.60;78.10;;;;;;5053531;28;20044;-67
2023/07/25 09:55:50;;;;;;;0.00;0.00;;;21.60;81.30;;;;;;5052336;28;20040;-67
2023/07/25 09:58:16;;;;;;;0.00;0.00;;;21.50;76.30;;;;;;5071002;28;20155;-67
2023/07/25 10:00:42;;;;;;;0.00;0.00;;;21.40;75.70;;;;;;5068461;28;20033;-67
2023/07/25 10:03:09;;;;;;;0.10;0.10;;;21.10;74.80;;;;;;5071740;28;20040;-67
2023/07/25 10:05:42;;;;;;;0.57;0.10;;;21.20;86.70;;;;;;5052683;28;20127;-67
2023/07/25 10:08:10;;;;;;;0.00;0.00;;;21.40;82.00;;;;;;5071996;28;20037;-67
2023/07/25 10:10:36;;;;;;;1.35;0.00;;;21.40;80.20;;;;;;5068985;28;20040;-67
2023/07/25 10:13:02;;;;;;;0.00;0.00;;;21.40;78.70;;;;;;5071001;28;20044;-67
2023/07/25 10:15:30;;;;;;;0.10;0.00;;;21.40;77.70;;;;;;5051149;28;20080;-67
2023/07/25 10:18:20;;;;;;;0.00;0.00;;;21.30;78.40;;;;;;5052859;28;20060;-66
2023/07/25 10:20:50;;;;;;;0.00;0.00;;;21.10;78.20;;;;;;5050481;28;20076;-67
2023/07/25 10:23:17;;;;;;;0.05;0.05;;;21.30;84.80;;;;;;5068907;28;20036;-67
2023/07/25 10:25:43;;;;;;;0.00;0.00;;;21.30;90.60;;;;;;5050900;28;20048;-66
2023/07/25 10:28:11;;;;;;;0.45;0.00;;;21.10;80.30;;;;;;5053105;28;20040;-67
2023/07/25 10:30:45;;;;;;;0.43;0.20;;;20.80;85.80;;;;;;5053129;28;20552;-66
2023/07/25 10:33:13;;;;;;;0.70;0.00;;;20.50;85.40;;;;;;5052267;28;20110;-67
2023/07/25 10:35:52;;;;;;;0.10;0.00;;;20.30;87.60;;;;;;5070262;28;20652;-66
2023/07/25 10:38:23;;;;;;;0.75;0.00;;;20.10;90.10;;;;;;5071101;28;20098;-67
2023/07/25 10:41:16;;;;;;;0.00;0.00;;;20.00;91.00;;;;;;5050443;28;20048;-67
2023/07/25 10:43:45;;;;;;;0.22;0.00;;;20.30;95.30;;;;;;5066971;28;20363;-67
2023/07/25 10:46:14;;;;;;;0.10;0.00;;;20.70;90.40;;;;;;5052127;28;20119;-67
2023/07/25 10:48:45;;;;;;;0.00;0.00;;;20.60;90.20;;;;;;5070777;28;20067;-66
2023/07/25 10:51:12;;;;;;;0.20;0.00;;;20.60;90.00;;;;;;5070179;28;20041;-67
2023/07/25 10:53:39;;;;;;;0.55;0.00;;;20.30;90.30;;;;;;5047412;28;20080;-67
2023/07/25 10:56:05;;;;;;;0.00;0.00;;;20.10;89.40;;;;;;5068201;28;20257;-67
2023/07/25 10:58:39;;;;;;;0.00;0.00;;;19.70;85.60;;;;;;5069965;28;20041;-67
2023/07/25 11:01:05;;;;;;;;;;;19.50;90.70;;;;;;5052490;28;20064;-67
2023/07/25 11:03:36;;;;;;;0.05;0.00;;;19.50;91.70;;;;;;5052862;28;19923;-67
2023/07/25 11:06:21;;;;;;;0.10;0.03;;;19.90;92.00;;;;;;5070236;28;20043;-67
2023/07/25 11:08:48;;;;;;;0.00;0.00;;;20.60;88.30;;;;;;5070018;28;20458;-67
2023/07/25 11:11:14;;;;;;;0.63;0.20;;;20.80;87.00;;;;;;5050168;28;20043;-67
2023/07/25 11:13:41;;;;;;;0.10;0.00;;;20.70;88.70;;;;;;5050734;28;20470;-67
2023/07/25 11:16:09;;;;;;;0.00;0.00;;;20.50;92.50;;;;;;5069307;28;20036;-67
2023/07/25 11:18:48;;;;;;;0.45;0.10;;;20.40;92.60;;;;;;5070765;28;20589;-67
2023/07/25 11:21:15;;;;;;;0.57;0.10;;;20.30;91.40;;;;;;5068029;28;20570;-67
2023/07/25 11:23:41;;;;;;;0.00;0.00;;;20.30;91.50;;;;;;5050764;28;20094;-67
2023/07/25 11:26:07;;;;;;;0.30;0.00;;;20.40;92.20;;;;;;5068279;28;20044;-67
2023/07/25 11:28:34;;;;;;;0.00;0.00;;;20.70;92.70;;;;;;5051391;28;20040;-67
2023/07/25 11:30:59;;;;;;;0.20;0.00;;;21.10;90.50;;;;;;5068594;28;20404;-67
2023/07/25 11:33:25;;;;;;;0.20;0.00;;;21.30;89.00;;;;;;5050971;28;20044;-67
2023/07/25 11:35:55;;;;;;;0.00;0.00;;;21.60;88.20;;;;;;5051380;28;20035;-67
2023/07/25 11:38:23;;;;;;;0.03;0.00;;;22.30;85.20;;;;;;5052058;28;20082;-67
2023/07/25 11:40:53;;;;;;;0.17;0.05;;;22.90;88.30;;;;;;5065470;28;20157;-67
2023/07/25 11:43:20;;;;;;;0.80;0.10;;;23.20;77.40;;;;;;5052179;28;20036;-67
2023/07/25 11:45:46;;;;;;;0.82;0.20;;;23.30;77.50;;;;;;5067762;28;20040;-67
2023/07/25 11:48:16;;;;;;;0.68;0.20;;;23.00;73.60;;;;;;5048539;28;20457;-67
2023/07/25 11:50:43;;;;;;;0.00;0.00;;;22.60;73.40;;;;;;5066779;28;20083;-67
2023/07/25 11:53:10;;;;;;;1.15;0.00;;;22.00;69.50;;;;;;5070412;28;20072;-68
2023/07/25 11:55:38;;;;;;;0.17;0.10;;;21.40;73.40;;;;;;5050114;28;20076;-67
2023/07/25 11:58:05;;;;;;;0.00;0.00;;;20.60;74.80;;;;;;5069849;28;20091;-67
2023/07/25 12:00:41;;;;;;;0.55;0.10;;;20.10;79.70;;;;;;5068250;28;20457;-67
2023/07/25 12:03:23;;;;;;;0.20;0.20;;;19.60;82.20;;;;;;5050565;28;20053;-67
2023/07/25 12:05:56;;;;;;;4.63;0.75;;;19.40;90.20;;;;;;5049571;28;20423;-67
2023/07/25 12:08:33;;;;;;;0.00;0.00;;;19.30;91.50;;;;;;5052164;28;20052;-67
2023/07/25 12:11:07;;;;;;;0.30;0.10;;;19.30;91.70;;;;;;5049481;28;20117;-67
2023/07/25 12:13:51;;;;;;;0.30;0.00;;;19.40;92.30;;;;;;5055904;28;20048;-67
2023/07/25 12:16:31;;;;;;;;;;;19.60;92.70;;;;;;5071592;28;20040;-67
2023/07/25 12:19:10;;;;;;;0.00;0.00;;;19.70;91.30;;;;;;5055463;28;19921;-68
2023/07/25 12:21:40;;;;;;;0.00;0.00;;;19.80;91.10;;;;;;5070302;28;20504;-68
2023/07/25 12:24:07;;;;;;;0.75;0.00;;;19.80;91.70;;;;;;5073578;28;20485;-66
2023/07/25 12:26:46;;;;;;;0.00;0.00;;;19.90;90.00;;;;;;5070856;28;20107;-67
2023/07/25 12:29:25;;;;;;;0.22;0.00;;;19.90;88.10;;;;;;5073757;28;20041;-67
2023/07/25 12:31:52;;;;;;;0.00;0.00;;;20.30;91.80;;;;;;5050784;28;20412;-67
2023/07/25 12:34:20;;;;;;;0.00;0.00;;;20.40;90.70;;;;;;5073633;28;20094;-67
2023/07/25 12:36:46;;;;;;;0.50;0.22;;;20.40;86.80;;;;;;5071652;28;20059;-66
2023/07/25 12:39:12;;;;;;;0.47;0.00;;;20.40;90.90;;;;;;5055047;28;20407;-67
2023/07/25 12:41:39;;;;;;;0.22;0.00;;;20.40;84.80;;;;;;5070342;28;20032;-67
2023/07/25 12:44:05;;;;;;;0.00;0.00;;;20.70;90.30;;;;;;5055219;28;20162;-66
2023/07/25 12:46:31;;;;;;;0.10;0.00;;;21.30;92.60;;;;;;5054195;28;20042;-67